ルアンダ の空港の天気 - METARとTAF

ルアンダ国際空港 ( FNLU / LAD ) - アンゴラ ルアンダ
飛行場実況気象(Metar)
観測時間08/11 08:00 WAT (08/11 07:00 UTC)
風向・風速東南東 2m/s
視程5000m
天気現象もや
全天の4割程度の雲 雲底高度 610m
気温21℃
湿度94%
気圧1015hPa
METARFNLU 110700Z 11004KT 5000 BR SCT020 21/20 Q1015 NOSIG
過去の天気等 Google飛行場航空写真 Wunderground天気予報

過去48時間のMETAR

飛行場予報(TAF)
発表時間: 8/11 06:00 WAT (8/11 05:00 UTC)
予報対象時間: 11日7時 WAT ~ 12日13時 WAT
風向・風速南東 2m/s
視程8000m
全天の4割程度の雲 雲底高度 460m
11日10時 WAT ~ 11日12時 WAT に徐々に
風向・風速不定 1m/s
11日14時 WAT ~ 11日18時 WAT に一時的に
風向・風速西 5m/s
視程9000m
なし
11日23時 WAT ~ 12日1時 WAT に徐々に
風向・風速南 4m/s
視程10km以上
少しの雲 雲底高度 550m
12日5時 WAT ~ 12日9時 WAT に一時的に
風向・風速東南東 2m/s
視程8000m
全天の8割程度の雲 雲底高度 300m
TAF FNLU 110500Z 1106/1212 14004KT 8000 SCT015
BECMG 1109/1111 VRB02KT
TEMPO 1113/1117 26010KT 9000 NSC
BECMG 1122/1124 18008KT 9999 FEW018
TEMPO 1204/1208 11004KT 8000 BKN010